Time;durP1;ratioP1;P1;durP2;ratioP2;P2;SDS_P1;SDS_P2;PMS_P1;PMS_P2;Temp;Humidity;BMP_temperature;BMP_pressure;BME280_temperature;BME280_humidity;BME280_pressure;Samples;Min_cycle;Max_cycle;Signal;HPM_P1;HPM_P2
2022/12/13 00:00:16;;;;;;;33.95;15.25;;;-1.60;99.90;;;;;;5045673;28;20021;-69
2022/12/13 00:02:46;;;;;;;28.85;13.73;;;-1.60;99.90;;;;;;5046570;28;20025;-70
2022/12/13 00:05:12;;;;;;;25.30;12.95;;;-1.60;99.90;;;;;;5046256;28;20542;-70
2022/12/13 00:07:38;;;;;;;29.33;14.38;;;-1.60;99.90;;;;;;5044372;28;20131;-70
2022/12/13 00:10:05;;;;;;;26.30;13.63;;;-1.70;99.90;;;;;;5046931;28;20108;-69
2022/12/13 00:12:31;;;;;;;29.23;13.77;;;-1.70;99.90;;;;;;5042602;28;20033;-70
2022/12/13 00:14:57;;;;;;;26.88;13.05;;;-1.70;99.90;;;;;;5046777;28;20025;-70
2022/12/13 00:17:22;;;;;;;23.10;12.80;;;-1.80;99.90;;;;;;5044819;28;20025;-70
2022/12/13 00:19:48;;;;;;;35.83;14.40;;;-1.80;99.90;;;;;;5046915;28;20391;-70
2022/12/13 00:22:15;;;;;;;26.65;13.10;;;-1.70;99.90;;;;;;5045324;28;20041;-70
2022/12/13 00:24:41;;;;;;;29.17;12.85;;;-1.70;99.90;;;;;;5047140;28;20029;-69
2022/12/13 00:27:08;;;;;;;27.45;12.00;;;-1.70;99.90;;;;;;5045377;28;20040;-71
2022/12/13 00:29:33;;;;;;;21.83;11.27;;;-1.70;99.90;;;;;;5042264;28;20032;-70
2022/12/13 00:31:59;;;;;;;25.90;11.18;;;-1.70;99.90;;;;;;5048362;28;20017;-70
2022/12/13 00:34:25;;;;;;;24.08;11.63;;;-1.60;99.90;;;;;;5046960;28;20066;-70
2022/12/13 00:36:53;;;;;;;25.23;12.43;;;-1.60;99.90;;;;;;5048855;28;20112;-70
2022/12/13 00:39:18;;;;;;;22.98;11.23;;;-1.60;99.90;;;;;;5044490;28;20033;-70
2022/12/13 00:41:44;;;;;;;22.25;9.63;;;-1.60;99.90;;;;;;5046183;28;20043;-70
2022/12/13 00:44:12;;;;;;;23.05;12.35;;;-1.60;99.90;;;;;;5061039;28;20032;-71
2022/12/13 00:46:39;;;;;;;27.52;12.75;;;-1.60;99.90;;;;;;5050374;28;20468;-70
2022/12/13 00:49:04;;;;;;;27.42;12.15;;;-1.70;99.90;;;;;;5050030;28;20049;-70
2022/12/13 00:51:32;;;;;;;27.05;13.20;;;-1.60;99.90;;;;;;5048983;28;20110;-70
2022/12/13 00:53:59;;;;;;;27.67;13.50;;;-1.60;99.90;;;;;;5050411;28;20146;-71
2022/12/13 00:56:27;;;;;;;32.92;14.90;;;-1.70;99.90;;;;;;5042539;28;20021;-69
2022/12/13 00:58:54;;;;;;;32.40;14.13;;;-1.80;99.90;;;;;;5056086;28;20112;-69
2022/12/13 01:01:23;;;;;;;26.75;13.35;;;-1.80;99.90;;;;;;5054299;28;20044;-70
2022/12/13 01:03:49;;;;;;;34.85;13.63;;;-1.90;99.90;;;;;;5051875;28;20147;-69
2022/12/13 01:06:21;;;;;;;26.10;12.55;;;-1.90;99.90;;;;;;5051800;28;20090;-70
2022/12/13 01:08:47;;;;;;;26.23;12.10;;;-1.80;99.90;;;;;;5057164;28;20104;-70
2022/12/13 01:11:14;;;;;;;28.70;12.90;;;-1.80;99.90;;;;;;5049780;28;20036;-69
2022/12/13 01:13:40;;;;;;;28.42;13.50;;;-1.80;99.90;;;;;;5056496;28;20016;-70
2022/12/13 01:16:08;;;;;;;26.60;13.15;;;-1.90;99.90;;;;;;5060933;28;20037;-70
2022/12/13 01:18:35;;;;;;;32.55;13.38;;;-1.80;99.90;;;;;;5049947;28;20468;-70
2022/12/13 01:21:03;;;;;;;27.73;14.25;;;-1.90;99.90;;;;;;5057469;28;20056;-70
2022/12/13 01:23:30;;;;;;;28.90;13.60;;;-1.90;99.90;;;;;;5049747;28;20061;-69
2022/12/13 01:25:55;;;;;;;29.38;14.05;;;-1.90;99.90;;;;;;5054178;28;20029;-70
2022/12/13 01:28:22;;;;;;;33.58;13.65;;;-1.90;99.90;;;;;;5059694;28;20534;-70
2022/12/13 01:31:16;;;;;;;25.95;13.35;;;-2.00;99.90;;;;;;5065668;28;20421;-70
2022/12/13 01:33:42;;;;;;;27.23;13.32;;;-2.00;99.90;;;;;;5049637;28;20258;-71
2022/12/13 01:36:16;;;;;;;29.58;13.95;;;-2.00;99.90;;;;;;5049925;28;20431;-71
2022/12/13 01:38:41;;;;;;;29.77;13.73;;;-2.10;99.90;;;;;;5050681;28;20037;-71
2022/12/13 01:41:12;;;;;;;29.70;13.57;;;-2.10;99.90;;;;;;5050666;28;20086;-70
2022/12/13 01:43:40;;;;;;;29.95;13.98;;;-2.10;99.90;;;;;;5056196;28;20496;-70
2022/12/13 01:46:06;;;;;;;28.98;13.68;;;-2.20;99.90;;;;;;5051021;28;20025;-68
2022/12/13 01:48:38;;;;;;;31.20;14.05;;;-2.30;99.90;;;;;;5072928;28;20039;-69
2022/12/13 01:51:08;;;;;;;30.40;13.48;;;-2.30;99.90;;;;;;5052475;28;20070;-69
2022/12/13 01:53:36;;;;;;;26.25;13.20;;;-2.30;99.90;;;;;;5053862;28;20491;-70
2022/12/13 01:56:19;;;;;;;29.40;13.25;;;-2.40;99.90;;;;;;5057966;28;20037;-70
2022/12/13 01:58:49;;;;;;;30.73;11.95;;;-2.30;99.90;;;;;;5047067;28;20531;-69
2022/12/13 02:01:15;;;;;;;30.58;12.82;;;-2.20;99.90;;;;;;5044188;28;20040;-70
2022/12/13 02:03:42;;;;;;;32.33;13.57;;;-2.20;99.90;;;;;;5053077;28;20059;-70
2022/12/13 02:06:31;;;;;;;25.35;11.93;;;-2.30;99.90;;;;;;5055041;28;20037;-69
2022/12/13 02:08:57;;;;;;;27.10;11.63;;;-2.40;99.90;;;;;;5048566;28;20021;-69
2022/12/13 02:11:25;;;;;;;25.60;11.70;;;-2.30;99.90;;;;;;5048347;28;20032;-70
2022/12/13 02:13:51;;;;;;;30.63;11.70;;;-2.30;99.90;;;;;;5050852;28;20039;-70
2022/12/13 02:16:45;;;;;;;25.60;11.40;;;-2.20;99.90;;;;;;5049355;28;20032;-70
2022/12/13 02:19:49;;;;;;;27.00;10.88;;;-2.30;99.90;;;;;;5050394;28;20017;-70
2022/12/13 02:22:33;;;;;;;22.08;10.55;;;-2.30;99.90;;;;;;5049311;28;20496;-69
2022/12/13 02:25:04;;;;;;;23.92;9.95;;;-2.20;99.90;;;;;;5052826;28;20536;-70
2022/12/13 02:28:07;;;;;;;25.58;10.90;;;-2.30;99.90;;;;;;5049036;28;20029;-70
2022/12/13 02:30:45;;;;;;;28.55;10.52;;;-2.30;99.90;;;;;;5070138;28;20491;-71
2022/12/13 02:33:14;;;;;;;24.20;10.02;;;-2.50;99.90;;;;;;5060153;28;20051;-69
2022/12/13 02:35:59;;;;;;;26.15;10.77;;;-2.40;99.90;;;;;;5053055;28;20028;-71
2022/12/13 02:38:43;;;;;;;25.70;11.45;;;-2.50;99.90;;;;;;5052623;28;20496;-69
2022/12/13 02:41:18;;;;;;;25.13;10.40;;;-2.50;99.90;;;;;;5049268;28;20021;-70
2022/12/13 02:43:49;;;;;;;25.00;11.60;;;-2.50;99.90;;;;;;5049395;28;20576;-70
2022/12/13 02:46:19;;;;;;;29.77;11.23;;;-2.50;99.90;;;;;;5049652;28;20020;-70
2022/12/13 02:48:47;;;;;;;22.17;10.93;;;-2.60;99.90;;;;;;5050357;28;20031;-70
2022/12/13 02:51:15;;;;;;;26.50;12.07;;;-2.70;99.90;;;;;;5052035;28;20032;-70
2022/12/13 02:53:43;;;;;;;25.98;10.68;;;-2.70;99.90;;;;;;5053169;28;20120;-70
2022/12/13 02:56:09;;;;;;;28.85;11.88;;;-2.70;99.90;;;;;;5045297;28;20036;-68
2022/12/13 02:58:39;;;;;;;22.08;10.90;;;-2.70;99.90;;;;;;5047292;28;20033;-70
2022/12/13 03:01:32;;;;;;;21.27;10.30;;;-2.70;99.90;;;;;;5047054;28;20039;-70
2022/12/13 03:04:20;;;;;;;25.80;10.82;;;-2.80;99.90;;;;;;5045511;28;20026;-69
2022/12/13 03:06:53;;;;;;;24.23;10.70;;;-2.80;99.90;;;;;;5045847;28;20021;-69
2022/12/13 03:09:39;;;;;;;22.48;10.15;;;-2.80;99.90;;;;;;5046312;28;20029;-69
2022/12/13 03:15:45;;;;;;;22.58;10.70;;;-2.90;99.90;;;;;;5044145;28;20075;-69
2022/12/13 03:18:16;;;;;;;22.48;9.48;;;-2.90;99.90;;;;;;5045310;28;20025;-69
2022/12/13 03:20:51;;;;;;;24.23;11.07;;;-2.80;99.90;;;;;;5045662;28;20060;-70
2022/12/13 03:23:18;;;;;;;20.05;9.52;;;-2.80;99.90;;;;;;5043710;28;20036;-69
2022/12/13 03:25:48;;;;;;;23.52;9.70;;;-2.80;99.90;;;;;;5047139;28;20525;-70
2022/12/13 03:28:14;;;;;;;19.92;9.65;;;-2.90;99.90;;;;;;5045145;28;20036;-70
2022/12/13 03:30:40;;;;;;;27.92;10.20;;;-3.00;99.90;;;;;;5047126;28;20380;-70
2022/12/13 03:33:05;;;;;;;26.10;10.70;;;-3.00;99.90;;;;;;5047123;28;20075;-70
2022/12/13 03:35:32;;;;;;;25.08;10.98;;;-3.10;99.90;;;;;;5045076;28;21768;-68
2022/12/13 03:38:00;;;;;;;24.08;11.95;;;-3.00;99.90;;;;;;5046883;28;20494;-70
2022/12/13 03:40:27;;;;;;;29.73;13.77;;;-3.00;99.90;;;;;;5045152;28;20170;-69
2022/12/13 03:42:54;;;;;;;26.27;12.25;;;-3.10;99.90;;;;;;5047040;28;20040;-70
2022/12/13 03:45:20;;;;;;;25.67;10.38;;;-3.20;99.90;;;;;;5044978;28;20053;-69
2022/12/13 03:47:46;;;;;;;23.85;10.07;;;-3.20;99.90;;;;;;5046276;28;20036;-69
2022/12/13 03:50:11;;;;;;;26.48;10.00;;;-3.10;99.90;;;;;;5044964;28;20021;-70
2022/12/13 03:52:37;;;;;;;19.27;8.80;;;-3.00;99.90;;;;;;5047020;28;20025;-70
2022/12/13 03:55:03;;;;;;;17.17;7.95;;;-3.00;99.90;;;;;;5046959;28;20040;-70
2022/12/13 03:57:29;;;;;;;15.88;7.03;;;-2.80;99.90;;;;;;5044617;28;20770;-70
2022/12/13 03:59:55;;;;;;;16.75;8.23;;;-2.90;99.90;;;;;;5046795;28;20017;-70
2022/12/13 04:02:20;;;;;;;18.50;9.15;;;-2.90;99.90;;;;;;5045968;28;20408;-69
2022/12/13 04:04:46;;;;;;;21.02;10.35;;;-2.80;99.90;;;;;;5046868;28;20449;-70
2022/12/13 04:07:12;;;;;;;23.20;10.07;;;-2.80;99.90;;;;;;5045485;28;20025;-69
2022/12/13 04:09:37;;;;;;;19.80;9.57;;;-2.80;99.90;;;;;;5046834;28;20040;-69
2022/12/13 04:14:48;;;;;;;21.67;8.93;;;-2.80;99.90;;;;;;5040768;28;20387;-69
2022/12/13 04:17:14;;;;;;;20.13;8.93;;;-2.80;99.90;;;;;;5044367;28;20029;-68
2022/12/13 04:19:39;;;;;;;20.30;8.35;;;-2.70;99.90;;;;;;5049449;28;20535;-69
2022/12/13 04:22:05;;;;;;;16.02;7.70;;;-2.80;99.90;;;;;;5050456;28;20051;-70
2022/12/13 04:24:30;;;;;;;21.10;8.60;;;-2.90;99.90;;;;;;5045371;28;20124;-70
2022/12/13 04:26:56;;;;;;;19.70;8.10;;;-2.90;99.90;;;;;;5050126;28;20107;-69
2022/12/13 04:29:22;;;;;;;18.70;7.80;;;-2.90;99.90;;;;;;5048719;28;20130;-69
2022/12/13 04:31:48;;;;;;;21.42;8.90;;;-2.90;99.90;;;;;;5050764;28;20393;-69
2022/12/13 04:34:13;;;;;;;24.25;8.63;;;-2.90;99.90;;;;;;5049078;28;20148;-70
2022/12/13 04:36:40;;;;;;;22.80;8.48;;;-3.00;99.90;;;;;;5050473;28;20480;-70
2022/12/13 04:39:06;;;;;;;22.20;8.75;;;-3.00;99.90;;;;;;5050340;28;20499;-70
2022/12/13 04:41:36;;;;;;;19.40;8.60;;;-3.00;99.90;;;;;;5048296;28;20508;-69
2022/12/13 04:44:03;;;;;;;18.92;9.05;;;-3.00;99.90;;;;;;5049622;28;20037;-69
2022/12/13 04:46:29;;;;;;;18.13;8.35;;;-3.00;99.90;;;;;;5047456;28;20029;-70
2022/12/13 04:48:54;;;;;;;20.90;9.15;;;-3.10;99.90;;;;;;5047733;28;20017;-70
2022/12/13 04:51:20;;;;;;;21.42;8.00;;;-3.20;99.90;;;;;;5046972;28;20473;-70
2022/12/13 04:53:46;;;;;;;24.60;8.88;;;-3.10;99.90;;;;;;5048995;28;20029;-69
2022/12/13 04:56:11;;;;;;;21.42;9.45;;;-3.10;99.90;;;;;;5047487;28;20043;-70
2022/12/13 04:58:37;;;;;;;18.48;8.30;;;-3.20;99.90;;;;;;5048841;28;20128;-70
2022/12/13 05:01:07;;;;;;;16.77;8.60;;;-3.20;99.90;;;;;;5048291;28;20025;-70
2022/12/13 05:03:33;;;;;;;21.13;8.68;;;-3.10;99.90;;;;;;5047363;28;20056;-69
2022/12/13 05:05:58;;;;;;;22.58;8.38;;;-3.10;99.90;;;;;;5048957;28;20075;-70
2022/12/13 05:08:24;;;;;;;15.95;8.05;;;-3.10;99.90;;;;;;5046677;28;20025;-70
2022/12/13 05:10:50;;;;;;;20.45;8.32;;;-3.10;99.90;;;;;;5064075;28;20107;-70
2022/12/13 05:13:16;;;;;;;28.35;11.18;;;-3.10;99.90;;;;;;5043431;28;20052;-70
2022/12/13 05:15:41;;;;;;;23.60;10.13;;;-3.10;99.90;;;;;;5048284;28;20059;-70
2022/12/13 05:18:07;;;;;;;26.35;10.95;;;-3.20;99.90;;;;;;5045588;28;20499;-70
2022/12/13 05:20:36;;;;;;;22.45;9.27;;;-3.30;99.90;;;;;;5046770;28;20028;-69
2022/12/13 05:23:01;;;;;;;20.13;8.65;;;-3.20;99.90;;;;;;5046451;28;20029;-69
2022/12/13 05:25:27;;;;;;;19.95;9.13;;;-3.10;99.90;;;;;;5046534;28;20116;-70
2022/12/13 05:27:53;;;;;;;18.10;8.25;;;-3.10;99.90;;;;;;5045801;28;20153;-69
2022/12/13 05:30:19;;;;;;;14.80;7.78;;;-3.20;99.90;;;;;;5046523;28;20491;-69
2022/12/13 05:32:44;;;;;;;16.23;7.10;;;-3.20;99.90;;;;;;5048527;28;20040;-70
2022/12/13 05:35:19;;;;;;;14.20;5.60;;;-3.20;99.90;;;;;;5045940;28;20064;-68
2022/12/13 05:37:46;;;;;;;17.67;7.82;;;-3.20;99.90;;;;;;5048460;28;20031;-69
2022/12/13 05:40:12;;;;;;;24.25;10.32;;;-3.20;99.90;;;;;;5046960;28;20028;-69
2022/12/13 05:42:38;;;;;;;23.45;10.10;;;-3.20;99.90;;;;;;5048377;28;20033;-69
2022/12/13 05:45:06;;;;;;;25.77;10.70;;;-3.30;99.90;;;;;;5008303;28;1175649;-69
2022/12/13 05:47:31;;;;;;;26.30;11.18;;;-3.30;99.90;;;;;;5047697;28;20037;-70
2022/12/13 05:49:57;;;;;;;27.77;9.90;;;-3.40;99.90;;;;;;5048805;28;20021;-70
2022/12/13 05:52:23;;;;;;;18.63;8.38;;;-3.40;99.90;;;;;;5048251;28;20025;-70
2022/12/13 05:54:54;;;;;;;14.68;7.68;;;-3.40;99.90;;;;;;5049295;28;20033;-69
2022/12/13 05:57:19;;;;;;;17.77;7.10;;;-3.40;99.90;;;;;;5044723;28;20095;-69
2022/12/13 05:59:45;;;;;;;15.73;5.90;;;-3.40;99.90;;;;;;5049262;28;20476;-69
2022/12/13 06:02:10;;;;;;;17.55;6.72;;;-3.30;99.90;;;;;;5047642;28;20439;-69
2022/12/13 06:04:36;;;;;;;12.73;6.68;;;-3.30;99.90;;;;;;5048142;28;20029;-70
2022/12/13 06:07:02;;;;;;;17.15;7.53;;;-3.20;99.90;;;;;;5050582;28;20036;-68
2022/12/13 06:09:27;;;;;;;12.88;6.18;;;-3.30;99.90;;;;;;5050779;28;20082;-69
2022/12/13 06:11:53;;;;;;;14.05;7.10;;;-3.30;99.90;;;;;;5054394;28;20033;-69
2022/12/13 06:14:19;;;;;;;23.35;8.13;;;-3.20;99.90;;;;;;5049255;28;20032;-68
2022/12/13 06:16:44;;;;;;;21.27;7.78;;;-3.30;99.90;;;;;;5052392;28;20499;-70
2022/12/13 06:19:10;;;;;;;18.38;8.20;;;-3.20;99.90;;;;;;5052412;28;20100;-70
2022/12/13 06:21:36;;;;;;;23.95;8.32;;;-3.20;99.90;;;;;;5049742;28;20041;-70
2022/12/13 06:24:04;;;;;;;17.45;7.90;;;-3.20;99.90;;;;;;5054342;28;20029;-69
2022/12/13 06:26:30;;;;;;;17.73;7.90;;;-3.10;99.90;;;;;;5046891;28;20063;-69
2022/12/13 06:28:55;;;;;;;15.30;7.45;;;-3.00;99.90;;;;;;5052225;28;20021;-70
2022/12/13 06:31:21;;;;;;;12.55;6.00;;;-3.10;99.90;;;;;;5058881;28;20036;-70
2022/12/13 06:33:47;;;;;;;19.55;7.45;;;-3.00;99.90;;;;;;5053480;28;20025;-70
2022/12/13 06:36:14;;;;;;;25.83;8.27;;;-3.00;99.90;;;;;;5049581;28;20495;-69
2022/12/13 06:38:39;;;;;;;17.85;7.38;;;-3.10;99.90;;;;;;5050448;28;20377;-70
2022/12/13 06:41:14;;;;;;;20.27;8.85;;;-3.10;99.90;;;;;;5053667;28;20037;-71
2022/12/13 06:43:44;;;;;;;21.83;8.68;;;-3.10;99.90;;;;;;5059541;28;20385;-71
2022/12/13 06:46:10;;;;;;;17.88;8.38;;;-3.10;99.90;;;;;;5051084;28;20025;-68
2022/12/13 06:48:36;;;;;;;22.90;9.20;;;-3.10;99.90;;;;;;5050905;28;20024;-69
2022/12/13 06:51:03;;;;;;;16.25;8.40;;;-3.20;99.90;;;;;;5044367;28;20108;-70
2022/12/13 06:53:30;;;;;;;20.30;9.00;;;-3.20;99.90;;;;;;5042699;28;20029;-69
2022/12/13 06:55:56;;;;;;;16.48;7.80;;;-3.10;99.90;;;;;;5043924;28;20025;-69
2022/12/13 06:58:23;;;;;;;17.73;7.78;;;-3.10;99.90;;;;;;5046440;28;20072;-71
2022/12/13 07:00:49;;;;;;;20.05;8.95;;;-3.10;99.90;;;;;;5047664;28;20114;-70
2022/12/13 07:03:14;;;;;;;17.17;8.32;;;-3.10;99.90;;;;;;5045390;28;20060;-70
2022/12/13 07:05:40;;;;;;;17.70;8.52;;;-3.10;99.90;;;;;;5047977;28;20033;-69
2022/12/13 07:08:06;;;;;;;19.15;8.45;;;-3.10;99.90;;;;;;5047018;28;20033;-69
2022/12/13 07:10:32;;;;;;;16.98;8.95;;;-3.20;99.90;;;;;;5045773;28;20029;-70
2022/12/13 07:12:58;;;;;;;15.85;7.43;;;-3.20;99.90;;;;;;5049181;28;20017;-70
2022/12/13 07:15:24;;;;;;;18.05;7.50;;;-3.20;99.90;;;;;;5048987;28;20564;-70
2022/12/13 07:17:50;;;;;;;18.50;8.02;;;-3.10;99.90;;;;;;5050079;28;20025;-70
2022/12/13 07:20:18;;;;;;;18.65;7.72;;;-3.10;99.90;;;;;;5056344;28;20036;-70
2022/12/13 07:22:44;;;;;;;21.25;8.45;;;-3.10;99.90;;;;;;5055903;28;20037;-70
2022/12/13 07:25:09;;;;;;;19.85;8.15;;;-3.00;99.90;;;;;;5053477;28;20115;-69
2022/12/13 07:27:35;;;;;;;18.42;7.30;;;-3.00;99.90;;;;;;5049386;28;20124;-69
2022/12/13 07:30:02;;;;;;;23.45;9.52;;;-3.00;99.90;;;;;;5049604;28;20025;-69
2022/12/13 07:32:28;;;;;;;18.17;7.68;;;-2.90;99.90;;;;;;5044940;28;20013;-70
2022/12/13 07:34:53;;;;;;;19.50;8.68;;;-2.90;99.90;;;;;;5045184;28;20381;-70
2022/12/13 07:37:19;;;;;;;17.95;8.80;;;-2.90;99.90;;;;;;5048172;28;20032;-69
2022/12/13 07:39:45;;;;;;;22.25;8.15;;;-2.90;99.90;;;;;;5050346;28;20052;-70
2022/12/13 07:42:11;;;;;;;22.38;9.00;;;-2.90;99.90;;;;;;5047916;28;20044;-68
2022/12/13 07:44:37;;;;;;;22.95;8.02;;;-2.90;99.90;;;;;;5053416;28;20059;-69
2022/12/13 07:47:02;;;;;;;18.35;7.78;;;-2.80;99.90;;;;;;5052167;28;20037;-70
2022/12/13 07:49:28;;;;;;;19.27;7.47;;;-2.90;99.90;;;;;;5047521;28;20092;-70
2022/12/13 07:51:53;;;;;;;16.75;7.85;;;-2.90;99.90;;;;;;5049921;28;20109;-70
2022/12/13 07:54:19;;;;;;;16.52;7.57;;;-2.90;99.90;;;;;;5047663;28;20028;-70
2022/12/13 07:56:45;;;;;;;14.15;7.03;;;-2.90;99.90;;;;;;5048122;28;20029;-71
2022/12/13 07:59:11;;;;;;;15.57;7.45;;;-2.80;99.90;;;;;;5045233;28;20037;-70
2022/12/13 08:01:37;;;;;;;18.13;7.90;;;-2.80;99.90;;;;;;5048926;28;20546;-69
2022/12/13 08:04:03;;;;;;;15.68;6.97;;;-2.80;99.90;;;;;;5047952;28;20074;-70
2022/12/13 08:06:32;;;;;;;22.15;7.25;;;-2.80;99.90;;;;;;5045600;28;20025;-71
2022/12/13 08:08:58;;;;;;;17.27;7.50;;;-2.70;99.90;;;;;;5048653;28;20433;-68
2022/12/13 08:11:24;;;;;;;14.55;6.88;;;-2.70;99.90;;;;;;5044119;28;20112;-69
2022/12/13 08:13:50;;;;;;;19.95;7.63;;;-2.60;99.90;;;;;;5049426;28;20365;-70
2022/12/13 08:16:16;;;;;;;19.63;7.68;;;-2.60;99.90;;;;;;5046860;28;20039;-69
2022/12/13 08:18:43;;;;;;;19.17;7.70;;;-2.50;99.90;;;;;;5044935;28;20488;-70
2022/12/13 08:21:09;;;;;;;14.68;7.20;;;-2.50;99.90;;;;;;5047028;28;20548;-68
2022/12/13 08:23:36;;;;;;;17.67;7.20;;;-2.40;99.90;;;;;;5050317;28;20029;-70
2022/12/13 08:26:03;;;;;;;16.92;8.70;;;-2.50;99.90;;;;;;5048597;28;20037;-71
2022/12/13 08:28:30;;;;;;;15.30;7.57;;;-2.60;99.90;;;;;;5042053;28;20025;-71
2022/12/13 08:31:03;;;;;;;18.58;7.35;;;-2.40;99.90;;;;;;5050876;28;20025;-70
2022/12/13 08:33:29;;;;;;;14.98;6.88;;;-2.40;99.90;;;;;;5049140;28;20028;-70
2022/12/13 08:35:55;;;;;;;16.55;6.60;;;-2.30;99.90;;;;;;5047448;28;20032;-70
2022/12/13 08:38:21;;;;;;;15.02;7.22;;;-2.20;99.90;;;;;;5045504;28;20491;-70
2022/12/13 08:40:46;;;;;;;17.17;7.68;;;-2.20;99.90;;;;;;5041825;28;20079;-70
2022/12/13 08:43:12;;;;;;;12.30;5.93;;;-2.10;99.90;;;;;;5042055;28;20135;-69
2022/12/13 08:45:38;;;;;;;14.55;7.00;;;-2.00;99.90;;;;;;5045551;28;20112;-70
2022/12/13 08:48:03;;;;;;;17.42;7.28;;;-2.00;99.90;;;;;;5044874;28;20029;-68
2022/12/13 08:50:30;;;;;;;14.43;7.30;;;-2.00;99.90;;;;;;5043505;28;20103;-70
2022/12/13 08:52:56;;;;;;;13.30;6.65;;;-2.00;99.90;;;;;;5042047;28;20068;-70
2022/12/13 08:55:22;;;;;;;15.38;7.85;;;-2.10;99.90;;;;;;5039709;28;20784;-70
2022/12/13 08:57:47;;;;;;;17.98;7.25;;;-2.10;99.90;;;;;;5043500;28;20025;-72
2022/12/13 09:00:16;;;;;;;18.30;8.30;;;-2.00;99.90;;;;;;5042248;28;20484;-71
2022/12/13 09:02:42;;;;;;;13.48;6.30;;;-1.90;99.90;;;;;;5043967;28;20029;-69
2022/12/13 09:05:09;;;;;;;12.02;7.25;;;-1.80;99.90;;;;;;5044426;28;20021;-71
2022/12/13 09:07:38;;;;;;;15.63;7.78;;;-1.80;99.90;;;;;;5045652;28;20025;-71
2022/12/13 09:10:04;;;;;;;16.08;7.80;;;-1.70;99.90;;;;;;5047058;28;20033;-69
2022/12/13 09:12:30;;;;;;;19.23;7.95;;;-1.70;99.90;;;;;;5041514;28;20441;-69
2022/12/13 09:14:55;;;;;;;16.83;7.72;;;-1.60;99.90;;;;;;5048254;28;20044;-72
2022/12/13 09:17:21;;;;;;;21.60;8.77;;;-1.50;99.90;;;;;;5045797;28;20036;-73
2022/12/13 09:19:47;;;;;;;16.13;7.82;;;-1.50;99.90;;;;;;5046634;28;20036;-72
2022/12/13 09:22:12;;;;;;;16.00;7.63;;;-1.40;99.90;;;;;;5044404;28;20055;-72
2022/12/13 09:24:38;;;;;;;16.67;9.23;;;-1.30;99.90;;;;;;5048218;28;20043;-71
2022/12/13 09:27:04;;;;;;;17.70;8.93;;;-1.20;99.90;;;;;;5045032;28;20070;-72
2022/12/13 09:29:32;;;;;;;17.77;9.05;;;-1.10;99.90;;;;;;5042052;28;20408;-71
2022/12/13 09:31:59;;;;;;;15.10;8.25;;;-1.00;99.90;;;;;;5047144;28;20527;-71
2022/12/13 09:34:24;;;;;;;16.92;9.15;;;-1.00;99.90;;;;;;5044702;28;20075;-69
2022/12/13 09:36:50;;;;;;;22.45;8.65;;;-0.90;99.90;;;;;;5046788;28;20033;-71
2022/12/13 09:39:16;;;;;;;13.82;7.47;;;-0.80;99.90;;;;;;5045356;28;20043;-71
2022/12/13 09:41:47;;;;;;;17.05;7.88;;;-0.70;99.90;;;;;;5045554;28;20048;-72
2022/12/13 09:44:12;;;;;;;16.75;8.00;;;-0.70;99.90;;;;;;5045663;28;20049;-72
2022/12/13 09:46:42;;;;;;;17.42;9.63;;;-0.70;99.90;;;;;;5047492;28;20033;-69
2022/12/13 09:49:29;;;;;;;16.20;8.18;;;-0.60;99.90;;;;;;5047553;28;20028;-73
2022/12/13 09:51:58;;;;;;;16.05;8.77;;;-0.60;99.90;;;;;;5046298;28;20039;-74
2022/12/13 09:54:24;;;;;;;17.02;8.32;;;-0.50;99.90;;;;;;5043432;28;20527;-75
2022/12/13 09:56:52;;;;;;;14.88;7.53;;;-0.40;99.90;;;;;;5044891;28;20044;-72
2022/12/13 09:59:25;;;;;;;16.17;8.05;;;-0.30;99.90;;;;;;5044572;28;20087;-74
2022/12/13 10:01:51;;;;;;;14.30;7.70;;;-0.40;99.90;;;;;;5046627;28;20041;-73
2022/12/13 10:04:17;;;;;;;14.38;7.63;;;-0.40;99.90;;;;;;5043208;28;20021;-75
2022/12/13 10:06:42;;;;;;;12.43;7.65;;;-0.40;99.90;;;;;;5041815;28;20025;-74
2022/12/13 10:09:12;;;;;;;13.85;7.20;;;-0.30;99.90;;;;;;5046834;28;20415;-75
2022/12/13 10:11:50;;;;;;;13.40;7.90;;;-0.20;99.90;;;;;;5045060;28;20048;-78
2022/12/13 10:14:38;;;;;;;17.77;7.10;;;-0.20;99.90;;;;;;5044831;28;20092;-74
2022/12/13 10:17:07;;;;;;;13.95;6.88;;;-0.10;99.90;;;;;;5044436;28;20571;-73
2022/12/13 10:19:41;;;;;;;15.15;7.57;;;-0.10;99.90;;;;;;5042887;28;20570;-75
2022/12/13 10:22:15;;;;;;;14.88;7.75;;;0.00;99.90;;;;;;5044352;28;20033;-73
2022/12/13 10:25:02;;;;;;;13.02;7.30;;;0.00;99.90;;;;;;5047378;28;20029;-74
2022/12/13 10:27:38;;;;;;;14.45;8.00;;;0.00;99.90;;;;;;5042501;28;20041;-73
2022/12/13 10:30:12;;;;;;;13.63;8.02;;;0.10;99.90;;;;;;5045506;28;20044;-75
2022/12/13 10:32:59;;;;;;;22.17;9.00;;;0.20;99.90;;;;;;5044910;28;20029;-75
2022/12/13 10:35:24;;;;;;;15.60;7.70;;;0.20;99.90;;;;;;5041940;28;20033;-73
2022/12/13 10:37:50;;;;;;;17.08;8.55;;;0.30;99.90;;;;;;5045840;28;20033;-74
2022/12/13 10:40:36;;;;;;;16.20;8.65;;;0.30;99.90;;;;;;5046313;28;20025;-75
2022/12/13 10:43:16;;;;;;;15.70;7.95;;;0.30;99.90;;;;;;5045139;28;20436;-73
2022/12/13 10:45:47;;;;;;;12.73;7.68;;;0.30;99.90;;;;;;5044525;28;20102;-73
2022/12/13 10:48:45;;;;;;;13.55;7.30;;;0.40;99.90;;;;;;5044475;28;20025;-74
2022/12/13 10:51:14;;;;;;;15.75;7.53;;;0.40;99.90;;;;;;5042571;28;20514;-73
2022/12/13 10:53:46;;;;;;;12.68;7.82;;;0.50;99.90;;;;;;5044820;28;20021;-75
2022/12/13 10:56:12;;;;;;;14.27;7.30;;;0.60;99.90;;;;;;5041069;28;20047;-76
2022/12/13 10:58:43;;;;;;;13.40;7.40;;;0.70;99.90;;;;;;5045208;28;20025;-75
2022/12/13 11:01:22;;;;;;;11.57;5.53;;;0.90;99.90;;;;;;5044879;28;20037;-73
2022/12/13 11:04:03;;;;;;;14.27;7.65;;;0.90;99.90;;;;;;5043817;28;20036;-75
2022/12/13 11:06:46;;;;;;;14.88;7.28;;;1.00;99.90;;;;;;5044162;28;20041;-75
2022/12/13 11:09:30;;;;;;;12.68;7.90;;;1.00;99.90;;;;;;5043717;28;20186;-74
2022/12/13 11:12:00;;;;;;;15.23;7.78;;;1.00;99.90;;;;;;5039160;28;20122;-75
2022/12/13 11:14:30;;;;;;;27.88;18.00;;;1.10;99.90;;;;;;5041089;28;20079;-75
2022/12/13 11:16:58;;;;;;;18.83;11.00;;;1.10;99.90;;;;;;5043179;28;20036;-76
2022/12/13 11:19:35;;;;;;;23.58;13.13;;;1.30;99.90;;;;;;5042565;28;20057;-76
2022/12/13 11:22:01;;;;;;;20.13;8.73;;;1.30;99.90;;;;;;5045010;28;20102;-76
2022/12/13 11:24:32;;;;;;;15.52;9.18;;;1.40;99.90;;;;;;5045113;28;20025;-75
2022/12/13 11:27:04;;;;;;;16.83;8.80;;;1.40;99.90;;;;;;5045055;28;20032;-75
2022/12/13 11:29:45;;;;;;;18.30;9.32;;;1.40;99.90;;;;;;5042826;28;20025;-76
2022/12/13 11:32:35;;;;;;;13.50;8.30;;;1.50;99.90;;;;;;5043981;28;20112;-74
2022/12/13 11:35:20;;;;;;;14.95;7.65;;;1.50;99.90;;;;;;5045525;28;20021;-75
2022/12/13 11:37:54;;;;;;;17.42;8.88;;;1.60;99.90;;;;;;5044513;28;20028;-77
2022/12/13 11:40:31;;;;;;;14.20;8.10;;;1.70;99.90;;;;;;5039082;28;20116;-75
2022/12/13 11:43:07;;;;;;;13.48;8.65;;;1.70;99.90;;;;;;5044518;28;20044;-75
2022/12/13 11:45:43;;;;;;;16.67;8.55;;;1.80;99.90;;;;;;5040569;28;20052;-74
2022/12/13 11:48:16;;;;;;;14.57;7.90;;;1.80;99.90;;;;;;5043405;28;20337;-76
2022/12/13 11:50:48;;;;;;;;;;;1.90;99.90;;;;;;5060443;28;20086;-75
2022/12/13 11:53:33;;;;;;;17.00;10.30;;;2.00;99.90;;;;;;5043608;28;19931;-76
2022/12/13 11:56:27;;;;;;;15.98;9.95;;;2.20;99.90;;;;;;5044453;28;20029;-75
2022/12/13 11:58:53;;;;;;;13.13;8.45;;;2.40;99.90;;;;;;5043719;28;20071;-78
2022/12/13 12:01:26;;;;;;;14.40;7.65;;;2.80;99.90;;;;;;5041687;28;21314;-78
2022/12/13 12:04:06;;;;;;;17.13;9.93;;;3.20;99.90;;;;;;5044812;28;20027;-75
2022/12/13 12:06:56;;;;;;;15.38;8.10;;;3.50;99.90;;;;;;5043230;28;20073;-75
2022/12/13 12:09:26;;;;;;;15.63;8.32;;;3.60;99.90;;;;;;5042864;28;20040;-76
2022/12/13 12:12:17;;;;;;;13.05;7.18;;;3.60;99.90;;;;;;5043190;28;20029;-76
2022/12/13 12:15:13;;;;;;;15.93;7.68;;;3.50;99.90;;;;;;5044269;28;20040;-77
2022/12/13 12:17:39;;;;;;;11.63;6.63;;;3.30;99.90;;;;;;5043300;28;20041;-76
2022/12/13 12:20:10;;;;;;;15.00;7.10;;;3.10;99.90;;;;;;5046957;28;20075;-72
2022/12/13 12:22:52;;;;;;;12.23;7.78;;;2.90;99.90;;;;;;5043412;28;20499;-75
2022/12/13 12:25:29;;;;;;;14.32;9.60;;;2.90;99.90;;;;;;5043914;28;20037;-73
2022/12/13 12:28:33;;;;;;;12.00;8.02;;;2.80;99.90;;;;;;5041386;28;20058;-75
2022/12/13 12:31:34;;;;;;;18.35;8.23;;;2.80;99.90;;;;;;5042119;28;20411;-74
2022/12/13 12:34:16;;;;;;;12.27;7.50;;;2.90;99.90;;;;;;5044145;28;20449;-73
2022/12/13 12:37:11;;;;;;;14.35;7.95;;;2.90;99.90;;;;;;5044255;28;20047;-74
2022/12/13 12:40:01;;;;;;;18.05;10.90;;;2.80;99.90;;;;;;5037377;28;20469;-75
2022/12/13 12:42:48;;;;;;;13.63;7.85;;;2.90;99.90;;;;;;5043486;28;20063;-74
2022/12/13 12:45:29;;;;;;;18.15;8.77;;;2.80;99.90;;;;;;5046214;28;20068;-73
2022/12/13 12:48:32;;;;;;;13.65;7.13;;;2.70;99.90;;;;;;5048996;28;20037;-73
2022/12/13 12:51:06;;;;;;;14.55;8.40;;;2.60;99.90;;;;;;5046390;28;20094;-74
2022/12/13 12:53:53;;;;;;;15.75;10.00;;;2.70;99.90;;;;;;5047998;28;20044;-74
2022/12/13 12:56:38;;;;;;;14.23;8.63;;;2.70;99.90;;;;;;5043041;28;20047;-77